Time;durP1;ratioP1;P1;durP2;ratioP2;P2;SDS_P1;SDS_P2;PMS_P1;PMS_P2;Temp;Humidity;BMP_temperature;BMP_pressure;BME280_temperature;BME280_humidity;BME280_pressure;Samples;Min_cycle;Max_cycle;Signal;HPM_P1;HPM_P2
2024/01/08 00:01:36;;;;;;;12.70;3.88;;;-2.40;99.90;;;;;;5065198;28;20123;-66
2024/01/08 00:04:03;;;;;;;12.93;4.25;;;-2.50;99.90;;;;;;5072962;28;20060;-66
2024/01/08 00:06:29;;;;;;;11.15;3.97;;;-2.40;99.90;;;;;;5077190;28;20051;-66
2024/01/08 00:08:55;;;;;;;9.85;3.67;;;-2.40;99.90;;;;;;5077219;28;20020;-66
2024/01/08 00:11:20;;;;;;;9.00;3.72;;;-2.50;99.90;;;;;;5078430;28;20084;-65
2024/01/08 00:13:46;;;;;;;12.02;4.72;;;-2.40;99.90;;;;;;5073856;28;20024;-65
2024/01/08 00:16:12;;;;;;;10.30;4.60;;;-2.50;99.90;;;;;;5077433;28;20012;-65
2024/01/08 00:18:38;;;;;;;11.45;4.13;;;-2.60;99.90;;;;;;5076675;28;20035;-66
2024/01/08 00:21:03;;;;;;;11.65;4.63;;;-2.50;99.90;;;;;;5080820;28;20027;-65
2024/01/08 00:23:31;;;;;;;11.43;4.53;;;-2.50;99.90;;;;;;5083010;28;20028;-65
2024/01/08 00:25:57;;;;;;;11.57;4.18;;;-2.60;99.90;;;;;;5083154;28;20356;-66
2024/01/08 00:28:23;;;;;;;12.77;4.13;;;-2.60;99.90;;;;;;5081894;28;20036;-66
2024/01/08 00:30:48;;;;;;;10.32;4.13;;;-2.60;99.90;;;;;;5080144;28;20147;-65
2024/01/08 00:33:14;;;;;;;6.78;2.40;;;-2.60;99.90;;;;;;5084144;28;20024;-65
2024/01/08 00:35:40;;;;;;;11.45;4.18;;;-2.50;99.90;;;;;;5080958;28;20019;-68
2024/01/08 00:38:05;;;;;;;10.88;4.60;;;-2.60;99.90;;;;;;5084833;28;20032;-67
2024/01/08 00:40:31;;;;;;;12.77;4.90;;;-2.60;99.90;;;;;;5080433;28;20020;-67
2024/01/08 00:42:57;;;;;;;12.48;4.65;;;-2.60;99.90;;;;;;5081412;28;20026;-67
2024/01/08 00:45:23;;;;;;;9.75;3.92;;;-2.70;99.90;;;;;;5079254;28;20464;-67
2024/01/08 00:47:49;;;;;;;13.25;4.88;;;-2.70;99.90;;;;;;5078404;28;20020;-67
2024/01/08 00:50:15;;;;;;;13.00;5.75;;;-2.70;99.90;;;;;;5083512;28;20020;-67
2024/01/08 00:52:41;;;;;;;12.85;5.47;;;-2.80;99.90;;;;;;5077621;28;20035;-66
2024/01/08 00:55:07;;;;;;;7.78;2.63;;;-2.80;99.90;;;;;;5075881;28;20110;-67
2024/01/08 00:57:33;;;;;;;11.45;4.70;;;-2.80;99.90;;;;;;5075746;28;20028;-66
2024/01/08 00:59:59;;;;;;;13.15;5.43;;;-2.80;99.90;;;;;;5075548;28;20016;-66
2024/01/08 01:02:25;;;;;;;11.60;4.90;;;-2.80;99.90;;;;;;5075130;28;20734;-66
2024/01/08 01:04:50;;;;;;;13.40;6.13;;;-2.80;99.90;;;;;;5075950;28;20431;-67
2024/01/08 01:07:16;;;;;;;14.13;5.78;;;-2.90;99.90;;;;;;5076557;28;20058;-67
2024/01/08 01:09:41;;;;;;;12.88;5.68;;;-3.00;99.90;;;;;;5079395;28;20383;-68
2024/01/08 01:12:08;;;;;;;9.63;4.38;;;-3.10;99.90;;;;;;5075658;28;20043;-67
2024/01/08 01:14:34;;;;;;;14.20;6.78;;;-3.10;99.90;;;;;;5077488;28;20427;-67
2024/01/08 01:16:59;;;;;;;8.35;3.25;;;-3.20;99.90;;;;;;5076545;28;20055;-68
2024/01/08 01:19:25;;;;;;;13.13;6.05;;;-3.20;99.90;;;;;;5077489;28;20019;-67
2024/01/08 01:21:51;;;;;;;12.48;5.07;;;-3.20;99.90;;;;;;5077567;28;20029;-67
2024/01/08 01:24:16;;;;;;;15.55;6.15;;;-3.30;99.90;;;;;;5078682;28;20494;-67
2024/01/08 01:26:42;;;;;;;13.98;6.93;;;-3.40;99.90;;;;;;5073924;28;20031;-67
2024/01/08 01:29:08;;;;;;;13.13;5.55;;;-3.40;99.90;;;;;;5076934;28;20028;-67
2024/01/08 01:31:34;;;;;;;10.13;4.85;;;-3.40;99.90;;;;;;5071908;28;20028;-68
2024/01/08 01:34:07;;;;;;;15.38;5.50;;;-3.30;99.90;;;;;;5073505;28;20099;-67
2024/01/08 01:36:35;;;;;;;7.00;2.95;;;-3.30;99.90;;;;;;5078043;28;20077;-67
2024/01/08 01:39:01;;;;;;;10.60;4.32;;;-3.20;99.90;;;;;;5077518;28;20443;-67
2024/01/08 01:41:27;;;;;;;14.73;5.78;;;-3.20;99.90;;;;;;5074140;28;20053;-67
2024/01/08 01:43:52;;;;;;;10.48;4.97;;;-3.20;99.90;;;;;;5080773;28;20372;-67
2024/01/08 01:46:36;;;;;;;14.32;5.38;;;-3.10;99.90;;;;;;5080265;28;20017;-67
2024/01/08 01:49:03;;;;;;;15.23;5.80;;;-3.20;99.90;;;;;;5076529;28;20048;-67
2024/01/08 01:51:29;;;;;;;12.98;5.07;;;-3.10;99.90;;;;;;5076176;28;20081;-67
2024/01/08 01:53:57;;;;;;;13.13;5.45;;;-3.10;99.90;;;;;;5078117;28;20016;-67
2024/01/08 01:56:23;;;;;;;16.13;6.72;;;-3.10;99.90;;;;;;5079458;28;20054;-67
2024/01/08 01:58:49;;;;;;;17.88;7.05;;;-3.10;99.90;;;;;;5081168;28;20017;-67
2024/01/08 02:01:15;;;;;;;13.95;5.88;;;-3.10;99.90;;;;;;5078240;28;20040;-67
2024/01/08 02:03:41;;;;;;;13.13;5.13;;;-3.10;99.90;;;;;;5080826;28;20238;-67
2024/01/08 02:06:11;;;;;;;14.48;6.57;;;-3.10;99.90;;;;;;5068123;28;20059;-66
2024/01/08 02:08:37;;;;;;;12.67;5.87;;;-3.00;99.90;;;;;;5076665;28;20048;-66
2024/01/08 02:11:03;;;;;;;16.27;6.75;;;-3.00;99.90;;;;;;5074705;28;20052;-65
2024/01/08 02:13:29;;;;;;;15.98;6.82;;;-3.00;99.90;;;;;;5074955;28;20056;-65
2024/01/08 02:15:55;;;;;;;15.77;6.15;;;-3.10;99.90;;;;;;5076085;28;20062;-66
2024/01/08 02:18:20;;;;;;;9.65;4.00;;;-3.10;99.90;;;;;;5075706;28;20071;-66
2024/01/08 02:20:46;;;;;;;16.83;6.65;;;-3.00;99.90;;;;;;5075146;28;20032;-66
2024/01/08 02:23:12;;;;;;;16.52;5.97;;;-2.90;99.90;;;;;;5074503;28;20023;-65
2024/01/08 02:25:38;;;;;;;11.18;3.75;;;-2.90;99.90;;;;;;5076508;28;20051;-65
2024/01/08 02:28:03;;;;;;;16.83;6.05;;;-2.90;99.90;;;;;;5074579;28;20650;-66
2024/01/08 02:30:29;;;;;;;13.95;6.15;;;-2.90;99.90;;;;;;5075936;28;20023;-65
2024/01/08 02:32:55;;;;;;;15.30;6.50;;;-2.90;99.90;;;;;;5073340;28;20031;-65
2024/01/08 02:35:20;;;;;;;17.80;5.90;;;-2.90;99.90;;;;;;5076511;28;20028;-65
2024/01/08 02:37:46;;;;;;;16.15;6.75;;;-2.90;99.90;;;;;;5076194;28;20084;-67
2024/01/08 02:40:12;;;;;;;17.10;7.38;;;-3.00;99.90;;;;;;5075543;28;20107;-65
2024/01/08 02:42:40;;;;;;;18.58;8.60;;;-3.00;99.90;;;;;;5077014;28;20031;-65
2024/01/08 02:45:06;;;;;;;15.95;6.90;;;-3.00;99.90;;;;;;5076456;28;20020;-65
2024/01/08 02:47:37;;;;;;;18.58;7.65;;;-3.00;99.90;;;;;;5076035;28;20021;-65
2024/01/08 02:50:06;;;;;;;16.23;6.07;;;-3.10;99.90;;;;;;5078189;28;20470;-66
2024/01/08 02:52:32;;;;;;;17.00;6.43;;;-3.00;99.90;;;;;;5075269;28;20062;-65
2024/01/08 02:54:58;;;;;;;18.25;6.35;;;-2.90;99.90;;;;;;5077046;28;20382;-65
2024/01/08 02:57:26;;;;;;;19.55;7.70;;;-2.90;99.90;;;;;;5078052;28;20020;-65
2024/01/08 02:59:52;;;;;;;16.85;6.93;;;-2.90;99.90;;;;;;5079515;28;20358;-65
2024/01/08 03:02:17;;;;;;;15.63;6.05;;;-3.00;99.90;;;;;;5075070;28;20090;-65
2024/01/08 03:04:43;;;;;;;17.52;6.80;;;-3.00;99.90;;;;;;5078714;28;20020;-65
2024/01/08 03:07:10;;;;;;;16.58;6.22;;;-3.00;99.90;;;;;;5078683;28;20036;-65
2024/01/08 03:09:36;;;;;;;9.75;3.97;;;-3.00;99.90;;;;;;5079310;28;20086;-65
2024/01/08 03:12:02;;;;;;;13.00;6.22;;;-2.90;99.90;;;;;;5079533;28;20028;-65
2024/01/08 03:14:27;;;;;;;18.00;8.07;;;-2.80;99.90;;;;;;5079231;28;20021;-65
2024/01/08 03:16:53;;;;;;;17.88;8.43;;;-2.80;99.90;;;;;;5079377;28;20020;-65
2024/01/08 03:19:18;;;;;;;14.73;6.25;;;-2.90;99.90;;;;;;5079946;28;20055;-65
2024/01/08 03:21:44;;;;;;;18.45;7.90;;;-3.00;99.90;;;;;;5078449;28;20452;-65
2024/01/08 03:24:09;;;;;;;15.85;6.07;;;-3.00;99.90;;;;;;5077165;28;20024;-65
2024/01/08 03:26:35;;;;;;;18.10;7.43;;;-3.00;99.90;;;;;;5073384;28;20077;-65
2024/01/08 03:29:01;;;;;;;16.85;7.22;;;-2.90;99.90;;;;;;5073760;28;20028;-65
2024/01/08 03:31:26;;;;;;;15.50;7.35;;;-2.90;99.90;;;;;;5072811;28;20020;-65
2024/01/08 03:33:52;;;;;;;13.63;5.60;;;-2.90;99.90;;;;;;5073471;28;20021;-65
2024/01/08 03:36:18;;;;;;;20.05;7.70;;;-2.90;99.90;;;;;;5074441;28;20031;-66
2024/01/08 03:38:43;;;;;;;20.10;7.85;;;-3.00;99.90;;;;;;5074710;28;20043;-65
2024/01/08 03:41:09;;;;;;;17.70;7.25;;;-2.90;99.90;;;;;;5071582;28;20040;-66
2024/01/08 03:43:34;;;;;;;18.27;6.50;;;-2.90;99.90;;;;;;5072719;28;20052;-65
2024/01/08 03:46:00;;;;;;;16.48;6.97;;;-2.90;99.90;;;;;;5073472;28;20036;-65
2024/01/08 03:48:26;;;;;;;20.05;9.30;;;-2.90;99.90;;;;;;5077126;28;20108;-65
2024/01/08 03:50:51;;;;;;;17.50;7.80;;;-2.90;99.90;;;;;;5072199;28;20029;-65
2024/01/08 03:53:17;;;;;;;12.00;5.20;;;-2.80;99.90;;;;;;5076493;28;20024;-65
2024/01/08 03:55:42;;;;;;;16.10;6.35;;;-2.80;99.90;;;;;;5075007;28;20024;-65
2024/01/08 03:58:08;;;;;;;18.00;7.28;;;-2.70;99.90;;;;;;5074255;28;20594;-66
2024/01/08 04:00:34;;;;;;;15.80;6.40;;;-2.70;99.90;;;;;;5078158;28;20017;-66
2024/01/08 04:02:59;;;;;;;20.20;8.25;;;-2.60;99.90;;;;;;5071906;28;20058;-66
2024/01/08 04:05:25;;;;;;;19.88;8.88;;;-2.70;99.90;;;;;;5076314;28;20020;-65
2024/01/08 04:07:51;;;;;;;16.50;6.22;;;;;;;;;;5076083;28;20017;-65
2024/01/08 04:10:16;;;;;;;20.95;9.43;;;-2.80;99.90;;;;;;5076322;28;20439;-65
2024/01/08 04:12:43;;;;;;;20.80;9.23;;;-2.80;99.90;;;;;;5076528;28;20020;-66
2024/01/08 04:15:08;;;;;;;15.98;6.88;;;-2.90;99.90;;;;;;5075904;28;20017;-66
2024/01/08 04:17:34;;;;;;;16.65;7.28;;;-2.80;99.90;;;;;;5076925;28;20021;-66
2024/01/08 04:20:00;;;;;;;17.88;6.40;;;-2.80;99.90;;;;;;5073906;28;20032;-65
2024/01/08 04:22:25;;;;;;;18.73;8.10;;;-2.80;99.90;;;;;;5077812;28;20032;-66
2024/01/08 04:24:51;;;;;;;21.10;8.40;;;-2.80;99.90;;;;;;5074748;28;20410;-67
2024/01/08 04:27:16;;;;;;;15.93;7.07;;;-2.80;99.90;;;;;;5081114;28;20069;-67
2024/01/08 04:29:42;;;;;;;17.83;8.38;;;-2.80;99.90;;;;;;5078347;28;20020;-67
2024/01/08 04:32:07;;;;;;;21.50;8.65;;;-2.80;99.90;;;;;;5078061;28;20029;-67
2024/01/08 04:34:33;;;;;;;19.80;9.00;;;-2.80;99.90;;;;;;5080723;28;20062;-67
2024/01/08 04:36:59;;;;;;;11.68;4.43;;;-2.80;99.90;;;;;;5076223;28;20021;-66
2024/01/08 04:39:25;;;;;;;17.95;7.25;;;-2.80;99.90;;;;;;5076973;28;20021;-67
2024/01/08 04:41:50;;;;;;;19.17;8.60;;;-2.90;99.90;;;;;;5071843;28;20052;-66
2024/01/08 04:44:16;;;;;;;16.92;7.68;;;-2.90;99.90;;;;;;5072157;28;20028;-67
2024/01/08 04:46:43;;;;;;;20.23;8.35;;;-2.90;99.90;;;;;;5071747;28;20029;-67
2024/01/08 04:49:08;;;;;;;14.98;7.32;;;-2.80;99.90;;;;;;5072920;28;20031;-67
2024/01/08 04:51:34;;;;;;;19.10;6.80;;;-2.80;99.90;;;;;;5077093;28;20016;-67
2024/01/08 04:54:00;;;;;;;21.10;8.60;;;-2.70;99.90;;;;;;5074950;28;20028;-67
2024/01/08 04:56:29;;;;;;;18.17;6.15;;;-2.80;99.90;;;;;;5075686;28;20480;-67
2024/01/08 04:58:55;;;;;;;23.65;8.93;;;-2.80;99.90;;;;;;5073605;28;20017;-67
2024/01/08 05:01:21;;;;;;;20.48;9.75;;;-2.90;99.90;;;;;;5073909;28;20094;-67
2024/01/08 05:03:47;;;;;;;21.27;9.60;;;-2.90;99.90;;;;;;5075511;28;20421;-68
2024/01/08 05:06:13;;;;;;;21.70;8.40;;;-2.90;99.90;;;;;;5076019;28;20025;-68
2024/01/08 05:08:39;;;;;;;18.75;7.93;;;-2.90;99.90;;;;;;5074721;28;20119;-67
2024/01/08 05:11:06;;;;;;;13.32;5.00;;;-2.90;99.90;;;;;;5079034;28;20032;-67
2024/01/08 05:13:32;;;;;;;15.95;7.13;;;-2.90;99.90;;;;;;5080498;28;20706;-67
2024/01/08 05:15:58;;;;;;;20.13;8.00;;;-2.90;99.90;;;;;;5076148;28;20100;-67
2024/01/08 05:18:23;;;;;;;18.10;8.63;;;-2.80;99.90;;;;;;5082226;28;20150;-67
2024/01/08 05:20:49;;;;;;;22.00;7.80;;;-2.90;99.90;;;;;;5077304;28;20027;-68
2024/01/08 05:23:15;;;;;;;19.08;8.45;;;-2.90;99.90;;;;;;5077094;28;20031;-67
2024/01/08 05:25:40;;;;;;;20.00;8.68;;;-2.80;99.90;;;;;;5083484;28;20093;-67
2024/01/08 05:28:06;;;;;;;20.58;9.10;;;-2.80;99.90;;;;;;5079251;28;20506;-66
2024/01/08 05:30:32;;;;;;;18.92;7.95;;;-2.80;99.90;;;;;;5074853;28;20025;-66
2024/01/08 05:32:57;;;;;;;23.15;9.68;;;-2.80;99.90;;;;;;5074582;28;20016;-66
2024/01/08 05:35:23;;;;;;;18.83;9.50;;;-2.70;99.90;;;;;;5074078;28;20064;-65
2024/01/08 05:37:49;;;;;;;19.35;8.63;;;-2.80;99.90;;;;;;5083241;28;20491;-65
2024/01/08 05:40:14;;;;;;;20.13;9.73;;;-2.80;99.90;;;;;;5085278;28;20020;-64
2024/01/08 05:42:40;;;;;;;21.52;8.25;;;-2.80;99.90;;;;;;5080425;28;20101;-65
2024/01/08 05:45:09;;;;;;;21.58;10.10;;;-2.80;99.90;;;;;;5079683;28;20116;-65
2024/01/08 05:47:36;;;;;;;16.33;7.37;;;-2.80;99.90;;;;;;5077186;28;20077;-65
2024/01/08 05:50:04;;;;;;;20.45;10.00;;;-2.80;99.90;;;;;;5074843;28;20036;-65
2024/01/08 05:52:29;;;;;;;20.38;9.45;;;-2.70;99.90;;;;;;5082492;28;20465;-65
2024/01/08 05:54:58;;;;;;;16.65;8.25;;;-2.70;99.90;;;;;;5077233;28;20032;-65
2024/01/08 05:57:24;;;;;;;19.40;7.13;;;-2.60;99.90;;;;;;5076130;28;20021;-65
2024/01/08 05:59:49;;;;;;;19.67;8.77;;;-2.70;99.90;;;;;;5078527;28;20043;-65
2024/01/08 06:02:15;;;;;;;22.23;9.68;;;-2.70;99.90;;;;;;5078485;28;20052;-66
2024/01/08 06:04:41;;;;;;;18.83;9.05;;;-2.70;99.90;;;;;;5084064;28;20525;-65
2024/01/08 06:07:06;;;;;;;21.23;9.55;;;-2.70;99.90;;;;;;5081590;28;20043;-66
2024/01/08 06:09:32;;;;;;;20.17;9.15;;;-2.60;99.90;;;;;;5081087;28;20158;-65
2024/01/08 06:12:00;;;;;;;13.00;5.32;;;-2.70;99.90;;;;;;5082485;28;20035;-65
2024/01/08 06:14:26;;;;;;;18.52;7.50;;;-2.70;99.90;;;;;;5080138;28;20012;-66
2024/01/08 06:16:52;;;;;;;18.25;6.47;;;-2.60;99.90;;;;;;5077296;28;20016;-65
2024/01/08 06:19:18;;;;;;;20.80;9.40;;;-2.50;99.90;;;;;;5082922;28;20024;-65
2024/01/08 06:21:44;;;;;;;14.93;6.55;;;-2.50;99.90;;;;;;5076808;28;20035;-65
2024/01/08 06:24:09;;;;;;;17.23;8.07;;;-2.50;99.90;;;;;;5086020;28;20447;-66
2024/01/08 06:26:35;;;;;;;15.95;7.18;;;-2.50;99.90;;;;;;5071970;28;20024;-65
2024/01/08 06:29:01;;;;;;;18.98;6.75;;;-2.50;99.90;;;;;;5082357;28;20027;-65
2024/01/08 06:31:27;;;;;;;16.50;6.57;;;-2.40;99.90;;;;;;5080205;28;20052;-65
2024/01/08 06:33:53;;;;;;;15.00;6.43;;;-2.40;99.90;;;;;;5076861;28;20055;-65
2024/01/08 06:36:20;;;;;;;10.77;5.00;;;-2.30;99.90;;;;;;5080444;28;20693;-66
2024/01/08 06:38:46;;;;;;;12.85;4.40;;;-2.30;99.90;;;;;;5078523;28;20084;-65
2024/01/08 06:41:11;;;;;;;13.55;6.40;;;-2.30;99.90;;;;;;5076574;28;20039;-65
2024/01/08 06:43:38;;;;;;;13.35;6.25;;;-2.20;99.90;;;;;;5080689;28;20024;-66
2024/01/08 06:46:06;;;;;;;14.82;6.07;;;-2.20;99.90;;;;;;5078351;28;20659;-65
2024/01/08 06:48:32;;;;;;;7.45;3.78;;;-2.20;99.90;;;;;;5086484;28;20059;-65
2024/01/08 06:51:03;;;;;;;14.20;4.85;;;-2.20;99.90;;;;;;5080515;28;20063;-65
2024/01/08 06:53:28;;;;;;;10.38;4.88;;;-2.10;99.90;;;;;;5081880;28;20058;-65
2024/01/08 06:55:54;;;;;;;10.05;4.07;;;-2.10;99.90;;;;;;5080420;28;20127;-65
2024/01/08 06:58:19;;;;;;;13.75;6.72;;;-2.10;99.90;;;;;;5086660;28;20024;-65
2024/01/08 07:00:47;;;;;;;13.82;6.03;;;-2.10;99.90;;;;;;5084573;28;20043;-66
2024/01/08 07:03:14;;;;;;;14.70;6.50;;;-2.20;99.90;;;;;;5080830;28;20480;-65
2024/01/08 07:05:39;;;;;;;13.30;5.85;;;-2.30;99.90;;;;;;5082683;28;20477;-66
2024/01/08 07:08:07;;;;;;;14.27;5.53;;;-2.20;99.90;;;;;;5080561;28;20059;-65
2024/01/08 07:10:34;;;;;;;12.75;5.30;;;-2.10;99.90;;;;;;5085363;28;20028;-66
2024/01/08 07:13:00;;;;;;;15.30;7.10;;;-2.20;99.90;;;;;;5083286;28;20062;-65
2024/01/08 07:15:47;;;;;;;11.85;5.03;;;-2.20;99.90;;;;;;5079996;28;20055;-65
2024/01/08 07:18:13;;;;;;;16.77;6.68;;;-2.20;99.90;;;;;;5090787;28;20044;-65
2024/01/08 07:20:40;;;;;;;10.02;3.83;;;-2.20;99.90;;;;;;5079966;28;20068;-65
2024/01/08 07:23:08;;;;;;;13.95;6.15;;;-2.30;99.90;;;;;;5071713;28;20032;-66
2024/01/08 07:25:37;;;;;;;13.13;5.47;;;-2.40;99.90;;;;;;5077090;28;20486;-66
2024/01/08 07:28:08;;;;;;;12.52;5.88;;;-2.30;99.90;;;;;;5074833;28;20025;-65
2024/01/08 07:30:34;;;;;;;13.60;6.57;;;-2.40;99.90;;;;;;5086604;28;20090;-65
2024/01/08 07:33:00;;;;;;;14.00;6.55;;;-2.40;99.90;;;;;;5087887;28;20545;-66
2024/01/08 07:35:26;;;;;;;16.88;6.82;;;-2.40;99.90;;;;;;5079630;28;20031;-66
2024/01/08 07:37:55;;;;;;;14.85;5.60;;;-2.50;99.90;;;;;;5079238;28;20033;-65
2024/01/08 07:40:27;;;;;;;15.33;6.80;;;0.40;99.90;;;;;;5078506;28;20028;-65
2024/01/08 07:42:57;;;;;;;17.15;7.47;;;-2.40;99.90;;;;;;5079239;28;20024;-66
2024/01/08 07:45:25;;;;;;;15.48;7.63;;;-2.40;99.90;;;;;;5086958;28;20386;-66
2024/01/08 07:47:52;;;;;;;15.32;7.68;;;-2.40;99.90;;;;;;5080971;28;20076;-65
2024/01/08 07:50:18;;;;;;;11.23;4.50;;;-2.40;99.90;;;;;;5079003;28;20020;-65
2024/01/08 07:52:43;;;;;;;15.52;7.65;;;-2.50;99.90;;;;;;5080260;28;20013;-65
2024/01/08 07:55:09;;;;;;;15.07;6.97;;;-2.40;99.90;;;;;;5080964;28;20103;-65
2024/01/08 07:57:35;;;;;;;14.80;6.63;;;-2.50;99.90;;;;;;5087044;28;20649;-65
2024/01/08 08:00:01;;;;;;;15.90;8.48;;;-2.50;99.90;;;;;;5089488;28;20020;-65
2024/01/08 08:02:27;;;;;;;15.88;7.72;;;-2.50;99.90;;;;;;5071547;28;20048;-66
2024/01/08 08:04:53;;;;;;;12.32;4.55;;;-2.50;99.90;;;;;;5079309;28;20029;-65
2024/01/08 08:07:19;;;;;;;17.83;8.45;;;-2.40;99.90;;;;;;5081480;28;20025;-65
2024/01/08 08:09:45;;;;;;;13.68;5.43;;;-2.40;99.90;;;;;;5080945;28;20593;-65
2024/01/08 08:12:11;;;;;;;12.68;5.32;;;-2.30;99.90;;;;;;5079661;28;20112;-65
2024/01/08 08:14:37;;;;;;;15.73;5.57;;;-2.20;99.90;;;;;;5081464;28;20024;-65
2024/01/08 08:17:06;;;;;;;16.60;7.72;;;-2.30;99.90;;;;;;5078701;28;20456;-65
2024/01/08 08:19:31;;;;;;;13.48;5.78;;;-2.30;99.90;;;;;;5081913;28;20035;-65
2024/01/08 08:21:57;;;;;;;15.40;7.72;;;-2.30;99.90;;;;;;5081314;28;20028;-66
2024/01/08 08:24:23;;;;;;;15.40;7.35;;;-2.30;99.90;;;;;;5077605;28;20025;-65
2024/01/08 08:26:49;;;;;;;18.92;7.05;;;;;;;;;;5088724;28;20021;-66
2024/01/08 08:29:15;;;;;;;14.30;5.68;;;-2.20;99.90;;;;;;5079386;28;20509;-65
2024/01/08 08:31:42;;;;;;;15.18;6.20;;;-2.20;99.90;;;;;;5079006;28;20028;-65
2024/01/08 08:34:09;;;;;;;14.32;5.55;;;;;;;;;;5078740;28;20092;-66
2024/01/08 08:36:37;;;;;;;15.05;6.70;;;-2.10;99.90;;;;;;5079304;28;20051;-65
2024/01/08 08:39:03;;;;;;;10.80;4.03;;;-2.20;99.90;;;;;;5079381;28;20032;-65
2024/01/08 08:41:29;;;;;;;14.98;4.90;;;-2.20;99.90;;;;;;5081818;28;20115;-66
2024/01/08 08:43:54;;;;;;;11.35;4.65;;;-2.10;99.90;;;;;;5082678;28;20021;-66
2024/01/08 08:46:20;;;;;;;9.60;4.10;;;-2.00;99.90;;;;;;5092583;28;20032;-65
2024/01/08 08:48:46;;;;;;;10.63;4.00;;;-1.90;99.90;;;;;;5083135;28;20034;-65
2024/01/08 08:51:11;;;;;;;8.43;3.53;;;-2.00;99.90;;;;;;5085372;28;20077;-65
2024/01/08 08:53:37;;;;;;;10.10;4.03;;;-2.00;99.90;;;;;;5083652;28;20025;-66
2024/01/08 08:56:04;;;;;;;9.38;3.05;;;-2.10;99.90;;;;;;5083239;28;20051;-65
2024/01/08 08:58:30;;;;;;;6.55;2.60;;;-2.20;99.90;;;;;;5091187;28;20483;-65
2024/01/08 09:00:56;;;;;;;11.93;3.80;;;-2.10;99.90;;;;;;5089270;28;20056;-66
2024/01/08 09:03:22;;;;;;;9.52;3.50;;;-2.20;99.90;;;;;;5076475;28;20028;-65
2024/01/08 09:05:47;;;;;;;11.32;4.95;;;-2.20;99.90;;;;;;5089852;28;20032;-65
2024/01/08 09:08:13;;;;;;;9.40;3.22;;;-2.20;99.90;;;;;;5083706;28;20033;-65
2024/01/08 09:10:39;;;;;;;9.45;3.78;;;-2.30;99.90;;;;;;5083931;28;20511;-66
2024/01/08 09:13:04;;;;;;;8.95;3.70;;;-2.30;99.90;;;;;;5082455;28;20070;-65
2024/01/08 09:15:30;;;;;;;5.20;2.28;;;-2.20;99.90;;;;;;5084891;28;20060;-66
2024/01/08 09:17:56;;;;;;;9.27;4.00;;;-2.00;99.90;;;;;;5085962;28;20093;-65
2024/01/08 09:20:22;;;;;;;9.45;3.08;;;-1.80;99.90;;;;;;5088445;28;20040;-65
2024/01/08 09:22:48;;;;;;;9.40;3.47;;;-1.40;99.90;;;;;;5085230;28;20357;-66
2024/01/08 09:25:14;;;;;;;7.40;2.80;;;-1.20;99.90;;;;;;5081899;28;20031;-65
2024/01/08 09:27:42;;;;;;;8.88;3.40;;;-1.10;99.90;;;;;;5083880;28;20024;-65
2024/01/08 09:30:08;;;;;;;10.88;4.13;;;-1.30;99.90;;;;;;5082973;28;20361;-66
2024/01/08 09:32:34;;;;;;;7.07;2.67;;;-1.30;99.90;;;;;;5081620;28;20024;-65
2024/01/08 09:35:00;;;;;;;8.93;3.50;;;-1.30;99.60;;;;;;5080104;28;20020;-66
2024/01/08 09:37:25;;;;;;;8.77;3.40;;;-1.30;95.60;;;;;;5081952;28;20025;-66
2024/01/08 09:39:52;;;;;;;7.15;2.90;;;-1.20;93.60;;;;;;5083596;28;20031;-65
2024/01/08 09:42:21;;;;;;;7.75;2.92;;;-1.00;92.60;;;;;;5079807;28;20028;-66
2024/01/08 09:44:53;;;;;;;10.32;3.13;;;-0.90;91.90;;;;;;5084783;28;20028;-65
2024/01/08 09:47:19;;;;;;;11.93;3.45;;;-0.90;93.30;;;;;;5077149;28;20717;-65
2024/01/08 09:49:46;;;;;;;7.80;2.70;;;-1.10;87.10;;;;;;5083998;28;20063;-65
2024/01/08 09:52:16;;;;;;;9.43;3.40;;;-1.20;93.30;;;;;;5079447;28;20229;-65
2024/01/08 09:54:45;;;;;;;;;;;-1.40;93.90;;;;;;5081958;28;20056;-65
2024/01/08 09:57:10;;;;;;;9.18;2.67;;;-1.40;94.20;;;;;;5083815;28;19910;-65
2024/01/08 09:59:36;;;;;;;7.28;3.20;;;-1.30;92.80;;;;;;5083509;28;20099;-65
2024/01/08 10:02:02;;;;;;;7.43;2.92;;;;;;;;;;5079338;28;20423;-65
2024/01/08 10:04:29;;;;;;;8.02;2.95;;;-0.80;91.40;;;;;;5081861;28;20028;-65
2024/01/08 10:07:08;;;;;;;7.60;3.25;;;-0.90;94.90;;;;;;5084354;28;20051;-66
2024/01/08 10:09:34;;;;;;;12.00;4.80;;;-1.10;97.40;;;;;;5089737;28;20037;-65
2024/01/08 10:12:00;;;;;;;9.60;3.47;;;-1.00;92.70;;;;;;5082217;28;20024;-65
2024/01/08 10:14:26;;;;;;;12.88;4.20;;;-0.80;95.80;;;;;;5081490;28;20032;-65
2024/01/08 10:16:54;;;;;;;8.45;3.90;;;-0.40;95.80;;;;;;5083983;28;20092;-67
2024/01/08 10:19:23;;;;;;;10.48;2.97;;;0.00;93.50;;;;;;5085391;28;20016;-67
2024/01/08 10:22:09;;;;;;;12.73;3.78;;;0.10;94.90;;;;;;5078320;28;20035;-67
2024/01/08 10:24:39;;;;;;;7.95;3.10;;;-0.10;93.60;;;;;;5082345;28;20483;-67
2024/01/08 10:27:07;;;;;;;12.60;3.05;;;0.20;94.00;;;;;;5080722;28;20386;-67
2024/01/08 10:29:34;;;;;;;13.60;6.43;;;0.00;86.90;;;;;;5089512;28;20024;-67
2024/01/08 10:32:00;;;;;;;11.45;3.90;;;-0.40;89.20;;;;;;5079991;28;20558;-66
2024/01/08 10:34:26;;;;;;;10.13;3.38;;;-0.50;89.50;;;;;;5089139;28;20475;-67
2024/01/08 10:36:54;;;;;;;12.15;4.45;;;-0.90;92.40;;;;;;5084031;28;20032;-67
2024/01/08 10:39:21;;;;;;;14.77;4.90;;;-0.80;91.60;;;;;;5087662;28;20039;-67
2024/01/08 10:41:47;;;;;;;11.23;4.50;;;-0.60;93.10;;;;;;5082770;28;20090;-67
2024/01/08 10:44:12;;;;;;;9.60;3.70;;;-0.50;87.70;;;;;;5079660;28;20478;-67
2024/01/08 10:46:59;;;;;;;11.02;3.97;;;-0.40;82.10;;;;;;5081675;28;20104;-66
2024/01/08 10:49:49;;;;;;;10.90;3.85;;;-0.10;89.00;;;;;;5079255;28;20021;-66
2024/01/08 10:52:25;;;;;;;8.68;3.88;;;0.20;78.70;;;;;;5076650;28;20028;-67
2024/01/08 10:54:54;;;;;;;9.70;3.85;;;0.30;76.90;;;;;;5059438;28;20031;-67
2024/01/08 10:57:21;;;;;;;10.68;3.83;;;0.10;74.60;;;;;;5086008;28;20032;-67
2024/01/08 10:59:49;;;;;;;10.10;3.53;;;0.10;88.90;;;;;;5089655;28;20100;-67
2024/01/08 11:02:16;;;;;;;10.05;3.60;;;0.50;81.60;;;;;;5088145;28;20138;-67
2024/01/08 11:04:43;;;;;;;8.85;3.58;;;0.70;68.60;;;;;;5079246;28;20407;-66
2024/01/08 11:07:15;;;;;;;9.40;4.07;;;0.70;72.70;;;;;;5077428;28;20024;-66
2024/01/08 11:09:41;;;;;;;9.98;4.35;;;0.50;70.70;;;;;;5083264;28;20023;-66
2024/01/08 11:12:10;;;;;;;10.45;3.83;;;0.30;75.80;;;;;;5084583;28;20025;-67
2024/01/08 11:14:39;;;;;;;10.85;4.20;;;0.70;79.90;;;;;;5090773;28;20024;-67
2024/01/08 11:17:10;;;;;;;10.32;4.53;;;1.20;73.30;;;;;;5079241;28;20418;-66
2024/01/08 11:19:47;;;;;;;11.93;4.40;;;0.70;69.20;;;;;;5080169;28;20071;-67
2024/01/08 11:22:15;;;;;;;9.50;3.97;;;0.40;75.80;;;;;;5077078;28;20024;-67
2024/01/08 11:24:41;;;;;;;9.15;3.25;;;0.30;82.90;;;;;;5076466;28;20071;-66
2024/01/08 11:27:07;;;;;;;8.00;3.33;;;0.30;79.90;;;;;;5083983;28;20832;-67
2024/01/08 11:29:34;;;;;;;9.38;2.85;;;0.40;86.70;;;;;;5089670;28;20029;-66
2024/01/08 11:32:20;;;;;;;8.73;2.97;;;0.60;77.40;;;;;;5074227;28;20025;-67
2024/01/08 11:34:57;;;;;;;7.50;2.78;;;1.10;70.50;;;;;;5081651;28;20329;-66
2024/01/08 11:37:37;;;;;;;9.80;3.60;;;1.40;65.50;;;;;;5080591;28;20078;-67
2024/01/08 11:40:14;;;;;;;12.35;4.70;;;1.30;64.80;;;;;;5080721;28;20055;-66
2024/01/08 11:42:40;;;;;;;8.88;3.75;;;1.50;64.70;;;;;;5074528;28;20545;-67
2024/01/08 11:45:06;;;;;;;9.18;4.28;;;1.30;69.90;;;;;;5082556;28;20119;-68
2024/01/08 11:47:32;;;;;;;9.07;3.15;;;0.70;72.10;;;;;;5079490;28;20055;-67
2024/01/08 11:49:58;;;;;;;9.30;3.80;;;0.40;75.70;;;;;;5081954;28;20031;-67
2024/01/08 11:52:26;;;;;;;6.93;2.50;;;0.10;62.70;;;;;;5080837;28;20513;-67
2024/01/08 11:54:56;;;;;;;8.95;2.97;;;-0.10;70.00;;;;;;5088224;28;20115;-67
2024/01/08 11:57:22;;;;;;;8.35;2.70;;;0.30;73.60;;;;;;5078903;28;20058;-67
2024/01/08 11:59:49;;;;;;;7.43;2.50;;;0.80;68.20;;;;;;5082594;28;20055;-67
2024/01/08 12:02:19;;;;;;;9.57;3.40;;;1.10;67.40;;;;;;5085054;28;20059;-67
2024/01/08 12:04:55;;;;;;;;;;;1.30;70.20;;;;;;5083127;28;20024;-67
2024/01/08 12:07:25;;;;;;;8.00;3.08;;;1.40;64.20;;;;;;5080110;28;19916;-66
2024/01/08 12:09:51;;;;;;;10.32;3.40;;;1.50;70.20;;;;;;5080330;28;20028;-66
2024/01/08 12:12:18;;;;;;;7.70;2.38;;;1.80;68.70;;;;;;5086741;28;20029;-67
2024/01/08 12:14:45;;;;;;;5.82;2.28;;;2.20;67.20;;;;;;5081639;28;20024;-67
2024/01/08 12:17:12;;;;;;;7.43;2.75;;;2.50;66.90;;;;;;5084920;28;20031;-67
2024/01/08 12:19:43;;;;;;;8.60;3.22;;;2.80;67.90;;;;;;5083767;28;20025;-67
2024/01/08 12:22:11;;;;;;;;;;;2.40;64.20;;;;;;5083920;28;20032;-67
2024/01/08 12:24:39;;;;;;;8.32;3.30;;;1.60;68.10;;;;;;5081820;28;19912;-67
2024/01/08 12:27:06;;;;;;;12.35;4.70;;;1.20;69.30;;;;;;5081772;28;20028;-67
2024/01/08 12:29:39;;;;;;;8.98;3.88;;;0.50;68.60;;;;;;5089051;28;20024;-67
2024/01/08 12:32:06;;;;;;;10.95;3.85;;;0.10;70.20;;;;;;5063447;28;20029;-67
2024/01/08 12:34:33;;;;;;;8.75;3.38;;;0.00;82.20;;;;;;5091898;28;20546;-68
2024/01/08 12:37:00;;;;;;;8.38;2.80;;;0.10;81.80;;;;;;5081514;28;20032;-66
2024/01/08 12:39:31;;;;;;;9.23;3.47;;;0.40;83.20;;;;;;5085549;28;20048;-67
2024/01/08 12:41:58;;;;;;;8.75;3.30;;;0.70;71.60;;;;;;5088323;28;20047;-66